Walkington, United Kingdom
Current Conditions -  °F | °C
As of 2:50 PM on Friday 28 Nov 2014 (Local Time) from EGXV Reporting Station
Haze Haze  
Wind Chill: 50°   Ceiling: 500
Heat Index: 50°   Visibility: 2.5mi
Dew Point: 50°   Wind: 9mph
Humidity: 100%   Direction: 100°E
Pressure: 29.74"   Gusts: NA
Location:  53.82°N, 0.05°W
Report Text: EGXV 281450Z AUTO 10008KT 4100 BR OVC005/// 10/10 Q1007 REDZ
Loading
Personal Weather Stations






























Interactive Weather Map New forecast layout! Learn more

10-Day Weather Forecast

Advertisements
Track Severe Weather on mobile